createdAt,value
2023-11-05T00:00:06.735Z,96689.28
2023-11-05T00:05:15.755Z,96704.56
2023-11-05T00:10:17.616Z,96687.72
2023-11-05T00:15:21.849Z,96679.13
2023-11-05T00:20:23.676Z,96663.06
2023-11-05T00:25:25.367Z,96656.53
2023-11-05T00:30:27.022Z,96628.44
2023-11-05T00:35:28.648Z,96625.88
2023-11-05T00:40:30.978Z,96606.28
2023-11-05T00:45:33.800Z,96583.50
2023-11-05T00:50:35.496Z,96574.97
2023-11-05T00:55:37.187Z,96561.00
2023-11-05T01:00:38.822Z,96570.03
2023-11-05T01:05:40.544Z,96560.22
2023-11-05T01:10:42.268Z,96543.25
2023-11-05T01:15:44.060Z,96532.59
2023-11-05T01:20:45.725Z,96531.25
2023-11-05T01:25:47.461Z,96508.78
2023-11-05T01:30:49.117Z,96485.75
2023-11-05T01:35:50.744Z,96485.41
2023-11-05T01:40:52.550Z,96473.59
2023-11-05T01:45:54.745Z,96485.88
2023-11-05T01:50:57.360Z,96466.41
2023-11-05T01:55:59.158Z,96447.00
2023-11-05T02:01:02.204Z,96450.22
2023-11-05T02:06:04.288Z,96425.06
2023-11-05T02:11:06.394Z,96423.94
2023-11-05T02:16:09.321Z,96396.63
2023-11-05T02:21:13.171Z,96395.81
2023-11-05T02:26:14.867Z,96380.09
2023-11-05T02:31:16.433Z,96382.66
2023-11-05T02:36:18.216Z,96355.84
2023-11-05T02:41:20.692Z,96364.28
2023-11-05T02:46:22.370Z,96347.09
2023-11-05T02:51:24.130Z,96325.06
2023-11-05T02:56:25.884Z,96334.13
2023-11-05T03:01:31.713Z,96332.28
2023-11-05T03:06:33.677Z,96313.44
2023-11-05T03:11:35.552Z,96300.41
2023-11-05T03:16:40.372Z,96275.69
2023-11-05T03:21:42.366Z,96270.66
2023-11-05T03:26:44.075Z,96266.56
2023-11-05T03:31:49.246Z,96261.97
2023-11-05T03:36:50.946Z,96260.34
2023-11-05T03:41:52.735Z,96222.59
2023-11-05T03:46:54.506Z,96236.69
2023-11-05T03:51:56.132Z,96223.06
2023-11-05T03:57:00.880Z,96250.50
2023-11-05T04:02:03.060Z,96241.94
2023-11-05T04:07:08.962Z,96234.03
2023-11-05T04:12:10.661Z,96264.25
2023-11-05T04:17:12.378Z,96278.44
2023-11-05T04:22:14.070Z,96253.72
2023-11-05T04:27:16.267Z,96263.78
2023-11-05T04:32:19.188Z,96286.94
2023-11-05T04:37:21.146Z,96280.28
2023-11-05T04:42:22.807Z,96315.50
2023-11-05T04:47:24.564Z,96303.66
2023-11-05T04:52:26.219Z,96303.31
2023-11-05T04:57:28.160Z,96322.06
2023-11-05T05:02:31.738Z,96304.53
2023-11-05T05:07:33.346Z,96344.75
2023-11-05T05:12:35.334Z,96324.56
2023-11-05T05:17:37.024Z,96333.91
2023-11-05T05:22:38.784Z,96340.56
2023-11-05T05:27:40.465Z,96336.47
2023-11-05T05:32:42.169Z,96349.63
2023-11-05T05:37:43.991Z,96358.81
2023-11-05T05:42:46.671Z,96378.78
2023-11-05T05:47:48.466Z,96379.31
2023-11-05T05:52:50.214Z,96388.50
2023-11-05T05:57:51.886Z,96381.69
2023-11-05T06:02:53.943Z,96367.94
2023-11-05T06:07:55.626Z,96375.97
2023-11-05T06:12:57.328Z,96378.63
2023-11-05T06:17:59.083Z,96397.38
2023-11-05T06:23:01.576Z,96424.56
2023-11-05T06:28:03.274Z,96460.25
2023-11-05T06:33:04.968Z,96472.16
2023-11-05T06:38:07.499Z,96479.56
2023-11-05T06:43:09.223Z,96493.09
2023-11-05T06:48:11.035Z,96506.75
2023-11-05T06:53:17.643Z,96506.41
2023-11-05T06:58:20.352Z,96516.19
2023-11-05T07:03:25.364Z,96526.31
2023-11-05T07:08:28.730Z,96527.78
2023-11-05T07:13:30.647Z,96536.66
2023-11-05T07:18:32.404Z,96554.06
2023-11-05T07:23:34.155Z,96565.19
2023-11-05T07:28:35.916Z,96572.44
2023-11-05T07:33:37.617Z,96592.09
2023-11-05T07:38:40.052Z,96603.31
2023-11-05T07:43:41.709Z,96609.00
2023-11-05T07:48:43.863Z,96619.50
2023-11-05T07:53:45.645Z,96642.59
2023-11-05T07:58:47.376Z,96660.59
2023-11-05T08:03:50.948Z,96667.28
2023-11-05T08:08:52.893Z,96686.44
2023-11-05T08:13:54.595Z,96695.00
2023-11-05T08:18:56.261Z,96716.59
2023-11-05T08:23:58.369Z,96716.16
2023-11-05T08:29:00.195Z,96737.09
2023-11-05T08:34:01.852Z,96730.91
2023-11-05T08:39:05.004Z,96749.97
2023-11-05T08:44:06.735Z,96757.53
2023-11-05T08:49:09.401Z,96760.25
2023-11-05T08:54:12.608Z,96786.81
2023-11-05T08:59:14.284Z,96788.00
2023-11-05T09:04:16.070Z,96823.09
2023-11-05T09:09:17.769Z,96837.34
2023-11-05T09:14:19.455Z,96847.13
2023-11-05T09:19:21.231Z,96872.56
2023-11-05T09:24:22.927Z,96894.13
2023-11-05T09:29:29.645Z,96901.97
2023-11-05T09:34:32.470Z,96914.03
2023-11-05T09:39:34.408Z,96913.63
2023-11-05T09:44:36.990Z,96928.69
2023-11-05T09:49:38.800Z,96949.94
2023-11-05T09:54:43.678Z,96953.16
2023-11-05T09:59:46.421Z,96976.25
2023-11-05T10:04:48.303Z,96992.00
2023-11-05T10:09:50.409Z,97004.31
2023-11-05T10:14:52.600Z,97003.16
2023-11-05T10:19:54.377Z,97005.06
2023-11-05T10:24:56.026Z,97019.84
2023-11-05T10:29:58.254Z,97019.72
2023-11-05T10:35:06.965Z,97040.72
2023-11-05T10:40:10.090Z,97055.31
2023-11-05T10:45:14.445Z,97064.44
2023-11-05T10:50:22.355Z,97070.69
2023-11-05T10:55:35.434Z,97098.44
2023-11-05T11:00:38.218Z,97114.00
2023-11-05T11:05:42.988Z,97124.56
2023-11-05T11:10:51.252Z,97142.91
2023-11-05T11:15:54.167Z,97136.03
2023-11-05T11:20:57.493Z,97145.28
2023-11-05T11:25:59.153Z,97148.38
2023-11-05T11:31:04.205Z,97170.53
2023-11-05T11:36:09.099Z,97166.78
2023-11-05T11:41:13.513Z,97169.78
2023-11-05T11:46:24.339Z,97184.22
2023-11-05T11:51:35.530Z,97191.78
2023-11-05T11:56:39.784Z,97215.88
2023-11-05T12:01:45.363Z,97230.25
2023-11-05T12:06:47.344Z,97238.28
2023-11-05T12:11:53.518Z,97235.44
2023-11-05T12:16:56.622Z,97264.44
2023-11-05T12:21:58.760Z,97252.97
2023-11-05T12:27:01.025Z,97262.13
2023-11-05T12:32:04.896Z,97273.84
2023-11-05T12:37:06.574Z,97276.69
2023-11-05T12:42:08.376Z,97274.59
2023-11-05T12:47:10.211Z,97270.22
2023-11-05T12:52:11.834Z,97292.97
2023-11-05T12:57:13.607Z,97302.69
2023-11-05T13:02:15.471Z,97319.41
2023-11-05T13:07:17.853Z,97314.88
2023-11-05T13:12:19.610Z,97318.13
2023-11-05T13:17:23.047Z,97339.06
2023-11-05T13:22:26.263Z,97338.38
2023-11-05T13:27:28.365Z,97354.47
2023-11-05T13:32:36.092Z,97377.53
2023-11-05T13:37:37.876Z,97391.56
2023-11-05T13:42:40.557Z,97407.59
2023-11-05T13:47:42.411Z,97414.72
2023-11-05T13:52:44.217Z,97416.44
2023-11-05T13:57:45.867Z,97442.66
2023-11-05T14:02:47.781Z,97454.81
2023-11-05T14:07:49.537Z,97447.59
2023-11-05T14:12:53.240Z,97481.66
2023-11-05T14:17:55.879Z,97496.50
2023-11-05T14:22:57.631Z,97516.91
2023-11-05T14:27:59.437Z,97529.19
2023-11-05T14:33:02.508Z,97528.28
2023-11-05T14:38:05.301Z,97554.09
2023-11-05T14:43:08.777Z,97559.88
2023-11-05T14:48:11.830Z,97598.72
2023-11-05T14:53:13.599Z,97621.88
2023-11-05T14:58:15.257Z,97657.75
2023-11-05T15:03:17.071Z,97671.78
2023-11-05T15:08:18.936Z,97708.88
2023-11-05T15:13:20.650Z,97719.03
2023-11-05T15:18:22.396Z,97755.78
2023-11-05T15:23:24.270Z,97780.75
2023-11-05T15:28:28.257Z,97794.19
2023-11-05T15:33:39.467Z,97824.19
2023-11-05T15:38:41.598Z,97843.25
2023-11-05T15:43:43.318Z,97864.94
2023-11-05T15:48:45.375Z,97876.16
2023-11-05T15:53:47.058Z,97871.34
2023-11-05T15:58:48.860Z,97894.88
2023-11-05T16:03:52.712Z,97906.56
2023-11-05T16:08:56.305Z,97922.47
2023-11-05T16:14:06.589Z,97941.47
2023-11-05T16:19:08.446Z,97955.97
2023-11-05T16:24:10.361Z,97984.88
2023-11-05T16:29:13.978Z,98020.09
2023-11-05T16:34:16.355Z,98061.44
2023-11-05T16:39:17.981Z,98075.38
2023-11-05T16:44:20.265Z,98099.53
2023-11-05T16:49:22.441Z,98107.78
2023-11-05T16:54:28.647Z,98128.38
2023-11-05T16:59:31.112Z,98135.00
2023-11-05T17:04:33.000Z,98151.25
2023-11-05T17:09:34.672Z,98160.38
2023-11-05T17:14:36.421Z,98179.31
2023-11-05T17:19:38.552Z,98184.53
2023-11-05T17:24:40.303Z,98207.50
2023-11-05T17:29:41.995Z,98218.44
2023-11-05T17:34:43.837Z,98234.00
2023-11-05T17:39:45.568Z,98240.59
2023-11-05T17:44:47.861Z,98253.72
2023-11-05T17:49:55.689Z,98260.28
2023-11-05T17:55:01.153Z,98273.97
2023-11-05T18:00:05.798Z,98276.66
2023-11-05T18:05:08.853Z,98281.84
2023-11-05T18:10:10.700Z,98289.00
2023-11-05T18:15:12.415Z,98292.81
2023-11-05T18:20:18.748Z,98308.97
2023-11-05T18:25:20.594Z,98315.25
2023-11-05T18:30:22.279Z,98321.88
2023-11-05T18:35:25.053Z,98332.50
2023-11-05T18:40:28.595Z,98322.09
2023-11-05T18:45:30.357Z,98336.06
2023-11-05T18:50:32.023Z,98350.03
2023-11-05T18:55:33.886Z,98348.16
2023-11-05T19:00:35.700Z,98364.09
2023-11-05T19:05:37.739Z,98364.97
2023-11-05T19:10:40.055Z,98390.72
2023-11-05T19:15:41.787Z,98408.22
2023-11-05T19:20:45.764Z,98411.47
2023-11-05T19:25:48.988Z,98417.78
2023-11-05T19:30:51.694Z,98430.38
2023-11-05T19:35:53.933Z,98426.53
2023-11-05T19:40:56.874Z,98425.16
2023-11-05T19:45:58.779Z,98435.81
2023-11-05T19:51:02.098Z,98453.03
2023-11-05T19:56:09.854Z,98444.56
2023-11-05T20:01:17.702Z,98450.53
2023-11-05T20:06:20.442Z,98449.41
2023-11-05T20:11:22.263Z,98456.25
2023-11-05T20:16:24.000Z,98450.22
2023-11-05T20:21:25.633Z,98465.00
2023-11-05T20:26:27.303Z,98474.88
2023-11-05T20:31:28.953Z,98465.28
2023-11-05T20:36:30.915Z,98476.03
2023-11-05T20:41:32.754Z,98516.91
2023-11-05T20:46:34.682Z,98533.88
2023-11-05T20:51:36.307Z,98533.84
2023-11-05T20:56:38.645Z,98559.72
2023-11-05T21:01:40.450Z,98574.19
2023-11-05T21:06:42.172Z,98592.81
2023-11-05T21:11:49.756Z,98603.78
2023-11-05T21:16:51.480Z,98609.50
2023-11-05T21:21:53.121Z,98612.25
2023-11-05T21:26:54.761Z,98618.00
2023-11-05T21:31:56.648Z,98624.28
2023-11-05T21:36:58.323Z,98621.00
2023-11-05T21:42:00.112Z,98628.34
2023-11-05T21:47:02.598Z,98642.28
2023-11-05T21:52:04.575Z,98645.88
2023-11-05T21:57:06.543Z,98656.22
2023-11-05T22:02:09.103Z,98666.59
2023-11-05T22:07:12.711Z,98670.25
2023-11-05T22:12:14.349Z,98683.19
2023-11-05T22:17:16.088Z,98674.75
2023-11-05T22:22:17.823Z,98678.34
2023-11-05T22:27:24.752Z,98671.19
2023-11-05T22:32:26.435Z,98675.53
2023-11-05T22:37:28.182Z,98681.97
2023-11-05T22:42:29.872Z,98719.13
2023-11-05T22:47:31.948Z,98732.53
2023-11-05T22:52:33.823Z,98741.84
2023-11-05T22:57:35.444Z,98750.34
2023-11-05T23:02:37.315Z,98762.41
2023-11-05T23:07:40.929Z,98760.78
2023-11-05T23:12:42.770Z,98768.09
2023-11-05T23:17:44.641Z,98766.91
2023-11-05T23:22:46.390Z,98760.31
2023-11-05T23:27:48.148Z,98778.06
2023-11-05T23:32:50.025Z,98774.84
2023-11-05T23:37:51.775Z,98785.28
2023-11-05T23:42:53.477Z,98789.19
2023-11-05T23:47:55.252Z,98780.44
2023-11-05T23:52:57.081Z,98773.00
2023-11-05T23:58:01.049Z,98777.09
